world map with HHN marked

HHN - Airport

This information may not be accurate or current and is not valid for navigation or flight planning. No warranty of fitness for any purpose is made or implied.

flag of Rhineland-Palatinateflag of Germany

Donate via PayPal

Additional information is available on the NEW Great Circle Mapper

Location
City:  Hahn, Rhineland-Palatinate, Germany
Name:Frankfurt-Hahn
ICAO / IATA:EDFH / HHN

Details
Type:Airport (Flugplatz, Airfield)
Use:Public/Civil
Latitude:49°56'55"N (49.948672)
Longitude:7°15'50"E (7.263892)
Datum:WGS 1984
Elevation:1649 ft (503 m)
Runways:1
Longest:12467 × 148 ft (3800 × 45 m)

Time
Timezone:UTC+1 (DST+4)
Local Time:

Weather
METAR:EDFH  211620Z 12003KT 080V210 CAVOK 12/03 Q1026
TAF:EDFH  211100Z 2112/2212 11007KT CAVOK BECMG 2206/2208 03004KT

Related Locations
Nearby:
Farthest:CHT: 11972 mi / 19267 km
Waitangi [Tuuta], CIT, NZ

Find:

   beyond  
but within

Other Information
Maps:
Links:
Sources:

  


 


Great Circle Mapper   Great Circle Mapper
Great Circle Mapper FAQ   Great Circle Mapper FAQ
  Karl's Home Page
KLSē   KLSē Home
   GC on Facebook
Airlines of the World   Airlines of the World
Donate via PayPal


Copyright © 2004-2018, Karl L. Swartz. All rights reserved.
All trademarks mentioned herein belong to their respective owners.

Please see credits for attribution and copyright information.

Karl Swartz <karl@kls2.com>
  Powered by FreeBSD
Valid HTML 4.01!
Labeled with ICRA
hCard Microformat
Geo Microformat